Terminal Aerodrome Forecast
Issued by NWS Sterling, VA

Home | Current Version | Previous Version | Text Only | Print | Product List | Glossary On
Versions: 1 2 3 4 5 6 7 8 9 10 11 12 13 14 15 16 17 18 19 20 21 22 23 24 25 26 27 28
524
FTUS41 KLWX 230709 AAA
TAFBWI
TAF AMD
KBWI 230709Z 2307/2412 08007KT 6SM -RADZ BR OVC012
     FM230900 07005KT 3SM -RADZ BR OVC008
     FM231200 08006KT 1 1/2SM -RA BR OVC008
     FM231300 08006KT 1SM -RA BR OVC003
     FM232000 13004KT 1SM BR OVC003
     FM240300 20004KT 4SM BR OVC008=

USA.gov is the U.S. government's official web portal to all federal, state and local government web resources and services.